Time;durP1;ratioP1;P1;durP2;ratioP2;P2;SDS_P1;SDS_P2;PMS_P1;PMS_P2;Temp;Humidity;BMP_temperature;BMP_pressure;BME280_temperature;BME280_humidity;BME280_pressure;Samples;Min_cycle;Max_cycle;Signal;HPM_P1;HPM_P2
2022/07/26 00:01:21;;;;;;;12.43;6.30;;;21.50;57.60;;;;;;5059894;28;46327;-67
2022/07/26 00:03:47;;;;;;;12.70;7.13;;;21.50;57.80;;;;;;5058747;28;46602;-67
2022/07/26 00:06:13;;;;;;;10.80;6.80;;;21.40;57.70;;;;;;5060425;28;46369;-67
2022/07/26 00:08:39;;;;;;;17.83;6.53;;;21.50;57.70;;;;;;5059006;28;46391;-67
2022/07/26 00:11:04;;;;;;;10.93;6.27;;;21.50;57.80;;;;;;5059944;28;47287;-67
2022/07/26 00:13:30;;;;;;;14.93;7.20;;;21.40;57.50;;;;;;5059109;28;46528;-67
2022/07/26 00:15:56;;;;;;;12.40;6.60;;;21.50;57.50;;;;;;5061084;28;46444;-67
2022/07/26 00:18:22;;;;;;;16.20;6.50;;;21.40;57.60;;;;;;5058863;28;46417;-67
2022/07/26 00:20:48;;;;;;;12.10;6.10;;;21.40;57.80;;;;;;5060386;28;46361;-67
2022/07/26 00:23:14;;;;;;;16.57;5.43;;;21.40;58.10;;;;;;5062804;28;46383;-67
2022/07/26 00:25:40;;;;;;;16.77;5.80;;;21.30;58.10;;;;;;5061062;27;46594;-67
2022/07/26 00:28:06;;;;;;;8.40;5.17;;;21.30;58.30;;;;;;5059688;28;46266;-67
2022/07/26 00:30:32;;;;;;;9.70;5.73;;;21.30;58.30;;;;;;5059525;28;48069;-67
2022/07/26 00:32:58;;;;;;;14.07;5.03;;;21.20;58.10;;;;;;5060349;28;46330;-67
2022/07/26 00:35:24;;;;;;;11.50;5.77;;;21.20;58.30;;;;;;5059098;28;46349;-67
2022/07/26 00:37:49;;;;;;;12.93;5.00;;;21.20;58.40;;;;;;5060186;28;46389;-66
2022/07/26 00:40:15;;;;;;;10.73;4.70;;;21.20;58.60;;;;;;5060275;28;46125;-66
2022/07/26 00:42:41;;;;;;;8.73;4.53;;;21.10;58.60;;;;;;5060404;28;46390;-67
2022/07/26 00:45:08;;;;;;;9.73;5.10;;;21.10;58.60;;;;;;5060310;28;46362;-67
2022/07/26 00:47:34;;;;;;;11.73;4.73;;;21.10;58.40;;;;;;5059623;28;45901;-67
2022/07/26 00:50:00;;;;;;;16.80;5.00;;;21.10;58.50;;;;;;5059501;28;46658;-66
2022/07/26 00:52:26;;;;;;;9.33;5.20;;;21.00;58.40;;;;;;5060106;28;46381;-67
2022/07/26 00:54:53;;;;;;;14.47;5.13;;;21.00;58.40;;;;;;5056428;28;46532;-66
2022/07/26 00:57:20;;;;;;;19.47;5.43;;;21.00;58.50;;;;;;5059002;28;45918;-67
2022/07/26 00:59:46;;;;;;;12.17;5.57;;;20.90;58.40;;;;;;5058542;28;46414;-67
2022/07/26 01:02:12;;;;;;;10.53;5.77;;;20.90;58.50;;;;;;5058343;28;46468;-67
2022/07/26 01:04:38;;;;;;;10.20;4.83;;;20.90;58.80;;;;;;5059776;28;46666;-67
2022/07/26 01:07:05;;;;;;;7.40;4.57;;;20.90;58.70;;;;;;5058072;28;46601;-67
2022/07/26 01:09:30;;;;;;;9.67;5.27;;;21.00;58.50;;;;;;5059717;28;46371;-66
2022/07/26 01:11:58;;;;;;;10.20;5.13;;;21.10;58.40;;;;;;5059828;28;46135;-67
2022/07/26 01:14:24;;;;;;;10.87;5.30;;;21.00;58.50;;;;;;5059949;28;45783;-67
2022/07/26 01:16:51;;;;;;;14.10;5.83;;;21.00;58.50;;;;;;5059057;28;46375;-67
2022/07/26 01:19:17;;;;;;;10.13;5.63;;;21.00;58.60;;;;;;5059309;28;46290;-67
2022/07/26 01:21:44;;;;;;;12.80;5.50;;;21.00;58.80;;;;;;5059199;28;46491;-67
2022/07/26 01:24:10;;;;;;;10.90;5.90;;;20.80;59.50;;;;;;5060130;28;46379;-67
2022/07/26 01:26:36;;;;;;;15.23;6.30;;;20.70;60.20;;;;;;5058801;28;46627;-66
2022/07/26 01:29:01;;;;;;;19.43;6.17;;;20.70;61.80;;;;;;5058912;28;46247;-67
2022/07/26 01:31:27;;;;;;;18.40;6.40;;;20.70;60.50;;;;;;5059691;28;46372;-67
2022/07/26 01:33:52;;;;;;;14.53;5.60;;;20.80;61.30;;;;;;5059499;28;46432;-67
2022/07/26 01:36:18;;;;;;;14.83;5.63;;;20.90;59.80;;;;;;5059722;28;46634;-66
2022/07/26 01:38:44;;;;;;;16.20;5.30;;;20.90;59.40;;;;;;5058275;28;48837;-66
2022/07/26 01:41:10;;;;;;;16.70;5.50;;;21.00;59.30;;;;;;5065455;28;46291;-67
2022/07/26 01:43:36;;;;;;;13.40;5.43;;;21.10;59.10;;;;;;5064261;28;46509;-66
2022/07/26 01:46:04;;;;;;;15.73;4.90;;;21.10;59.00;;;;;;5064451;28;46357;-67
2022/07/26 01:48:30;;;;;;;10.47;5.33;;;21.00;59.00;;;;;;5063049;28;46533;-66
2022/07/26 01:50:56;;;;;;;14.23;5.17;;;21.00;59.30;;;;;;5063245;28;46306;-66
2022/07/26 01:53:21;;;;;;;10.37;4.00;;;21.00;59.60;;;;;;5062314;28;46487;-67
2022/07/26 01:55:47;;;;;;;8.57;3.83;;;21.00;59.60;;;;;;5063286;28;46292;-66
2022/07/26 01:58:13;;;;;;;21.43;4.30;;;21.00;59.50;;;;;;5061040;28;47207;-66
2022/07/26 02:00:38;;;;;;;9.57;4.10;;;21.00;59.50;;;;;;5061365;28;46350;-67
2022/07/26 02:03:04;;;;;;;7.37;4.63;;;21.00;59.20;;;;;;5061163;28;46306;-67
2022/07/26 02:05:30;;;;;;;13.40;4.77;;;21.00;59.40;;;;;;5062365;28;46003;-67
2022/07/26 02:07:55;;;;;;;14.10;4.00;;;21.00;59.30;;;;;;5058452;28;47159;-67
2022/07/26 02:10:22;;;;;;;7.77;4.07;;;21.00;59.40;;;;;;5062269;28;46984;-67
2022/07/26 02:12:47;;;;;;;9.90;4.00;;;21.00;59.40;;;;;;5059656;28;46496;-67
2022/07/26 02:15:14;;;;;;;12.03;4.03;;;21.00;59.30;;;;;;5062495;28;46488;-67
2022/07/26 02:17:41;;;;;;;9.77;3.70;;;21.00;59.20;;;;;;5060737;28;46452;-67
2022/07/26 02:20:08;;;;;;;20.77;3.53;;;21.00;59.10;;;;;;5061741;28;46393;-66
2022/07/26 02:22:33;;;;;;;13.07;4.13;;;21.00;59.20;;;;;;5060871;28;46326;-67
2022/07/26 02:24:59;;;;;;;13.83;4.03;;;20.90;59.40;;;;;;5061949;28;46881;-67
2022/07/26 02:27:25;;;;;;;26.67;5.83;;;20.90;59.50;;;;;;5059394;28;46381;-67
2022/07/26 02:29:51;;;;;;;9.27;3.40;;;20.90;59.60;;;;;;5061951;28;46377;-67
2022/07/26 02:32:16;;;;;;;12.47;4.23;;;20.90;59.50;;;;;;5060069;28;46447;-66
2022/07/26 02:34:42;;;;;;;6.03;3.53;;;20.90;59.90;;;;;;5062094;28;46358;-67
2022/07/26 02:37:07;;;;;;;6.23;3.70;;;20.90;59.90;;;;;;5060055;28;46884;-67
2022/07/26 02:39:33;;;;;;;11.43;3.53;;;20.80;59.90;;;;;;5062132;28;46431;-67
2022/07/26 02:42:00;;;;;;;9.73;4.00;;;20.80;60.00;;;;;;5060269;28;46379;-66
2022/07/26 02:44:27;;;;;;;12.17;3.30;;;20.80;59.90;;;;;;5062255;28;46443;-67
2022/07/26 02:46:53;;;;;;;13.83;3.20;;;20.80;60.00;;;;;;5060808;28;47243;-67
2022/07/26 02:49:20;;;;;;;19.57;3.40;;;20.80;60.10;;;;;;5062752;28;46314;-66
2022/07/26 02:51:45;;;;;;;17.00;3.60;;;20.80;60.20;;;;;;5060406;28;46376;-66
2022/07/26 02:54:11;;;;;;;7.63;4.23;;;20.80;60.20;;;;;;5059808;28;46242;-67
2022/07/26 02:56:37;;;;;;;11.73;3.27;;;20.70;60.20;;;;;;5061609;28;46503;-67
2022/07/26 02:59:03;;;;;;;11.80;3.10;;;20.70;60.50;;;;;;5060383;28;46442;-66
2022/07/26 03:01:29;;;;;;;17.47;3.50;;;20.70;60.70;;;;;;5061815;28;46565;-66
2022/07/26 03:03:55;;;;;;;12.23;3.57;;;20.60;61.10;;;;;;5059554;28;46402;-66
2022/07/26 03:06:21;;;;;;;29.33;4.20;;;20.70;61.50;;;;;;5062051;28;46562;-66
2022/07/26 03:08:47;;;;;;;15.77;3.53;;;20.70;61.30;;;;;;5061039;28;46382;-66
2022/07/26 03:11:13;;;;;;;20.93;4.37;;;20.60;61.30;;;;;;5056626;28;46536;-69
2022/07/26 03:13:39;;;;;;;23.97;3.97;;;20.60;61.30;;;;;;5058487;28;46537;-68
2022/07/26 03:16:06;;;;;;;11.80;3.93;;;20.60;61.30;;;;;;5059219;28;46433;-66
2022/07/26 03:18:32;;;;;;;17.63;3.33;;;20.60;61.30;;;;;;5058911;28;46437;-67
2022/07/26 03:20:58;;;;;;;9.53;4.07;;;20.60;60.30;;;;;;5059820;28;46474;-66
2022/07/26 03:23:23;;;;;;;10.80;4.10;;;20.60;61.30;;;;;;5059709;28;46020;-67
2022/07/26 03:25:49;;;;;;;11.50;4.13;;;20.50;61.30;;;;;;5057959;28;47080;-68
2022/07/26 03:28:14;;;;;;;11.07;4.63;;;20.50;61.40;;;;;;5058747;28;46376;-67
2022/07/26 03:30:40;;;;;;;16.40;4.80;;;20.50;61.20;;;;;;5060791;28;46468;-68
2022/07/26 03:33:06;;;;;;;8.03;4.67;;;20.60;61.30;;;;;;5058008;28;46693;-67
2022/07/26 03:35:31;;;;;;;13.17;5.30;;;20.60;61.30;;;;;;5059240;28;46514;-66
2022/07/26 03:37:57;;;;;;;16.73;5.67;;;20.60;61.30;;;;;;5060191;28;46393;-67
2022/07/26 03:40:22;;;;;;;12.00;6.00;;;20.60;61.30;;;;;;5060108;28;46348;-67
2022/07/26 03:42:48;;;;;;;11.77;5.77;;;20.50;61.30;;;;;;5060063;28;46364;-68
2022/07/26 03:45:14;;;;;;;12.90;5.87;;;20.50;61.80;;;;;;5057560;28;46462;-68
2022/07/26 03:47:41;;;;;;;14.03;6.20;;;20.50;62.10;;;;;;5058770;28;46337;-66
2022/07/26 03:50:07;;;;;;;14.70;6.70;;;20.50;62.10;;;;;;5058735;28;46475;-67
2022/07/26 03:52:33;;;;;;;13.73;6.73;;;20.50;62.00;;;;;;5059473;28;47011;-68
2022/07/26 03:54:59;;;;;;;12.70;6.43;;;20.50;62.00;;;;;;5060761;28;47027;-68
2022/07/26 03:57:25;;;;;;;12.20;5.80;;;20.50;62.10;;;;;;5059825;28;46556;-68
2022/07/26 03:59:50;;;;;;;13.73;6.80;;;20.50;62.10;;;;;;5057412;28;46661;-67
2022/07/26 04:02:16;;;;;;;21.03;6.83;;;20.50;62.40;;;;;;5059490;28;46390;-67
2022/07/26 04:04:42;;;;;;;15.17;7.90;;;20.40;62.40;;;;;;5058867;28;46683;-68
2022/07/26 04:07:07;;;;;;;14.87;6.60;;;20.50;62.40;;;;;;5059710;28;46417;-68
2022/07/26 04:09:33;;;;;;;12.10;6.33;;;20.50;62.50;;;;;;5058229;28;45886;-67
2022/07/26 04:11:58;;;;;;;14.37;7.13;;;20.40;62.50;;;;;;5061486;28;46747;-67
2022/07/26 04:14:24;;;;;;;9.93;6.07;;;20.40;62.60;;;;;;5060141;28;46372;-68
2022/07/26 04:16:49;;;;;;;18.93;6.93;;;20.40;62.90;;;;;;5060680;28;46412;-67
2022/07/26 04:19:15;;;;;;;19.70;6.90;;;20.40;62.90;;;;;;5060921;28;46368;-67
2022/07/26 04:21:41;;;;;;;20.73;7.60;;;20.40;62.90;;;;;;5061042;28;46706;-67
2022/07/26 04:24:06;;;;;;;12.20;6.90;;;20.40;62.90;;;;;;5059386;28;46448;-67
2022/07/26 04:26:32;;;;;;;13.47;8.70;;;20.40;63.10;;;;;;5059741;28;46357;-67
2022/07/26 04:28:58;;;;;;;15.10;6.87;;;20.40;63.30;;;;;;5058613;28;46385;-67
2022/07/26 04:31:24;;;;;;;22.43;7.40;;;20.40;63.30;;;;;;5059768;28;46560;-67
2022/07/26 04:33:50;;;;;;;24.10;7.80;;;20.30;63.30;;;;;;5058744;28;46103;-67
2022/07/26 04:36:16;;;;;;;11.80;6.60;;;20.30;63.40;;;;;;5060261;28;46389;-67
2022/07/26 04:38:42;;;;;;;14.80;7.53;;;20.30;63.40;;;;;;5060000;28;46382;-67
2022/07/26 04:41:08;;;;;;;14.23;7.10;;;20.30;63.30;;;;;;5059817;28;46540;-67
2022/07/26 04:43:34;;;;;;;16.20;7.50;;;20.30;63.20;;;;;;5059979;28;46401;-67
2022/07/26 04:46:00;;;;;;;21.43;8.00;;;20.40;63.30;;;;;;5059776;28;46385;-67
2022/07/26 04:48:26;;;;;;;17.73;8.33;;;20.40;63.40;;;;;;5058893;28;46445;-67
2022/07/26 04:50:52;;;;;;;12.83;7.80;;;20.30;63.30;;;;;;5058693;28;46433;-67
2022/07/26 04:53:18;;;;;;;14.07;7.57;;;20.40;63.40;;;;;;5060648;28;47192;-67
2022/07/26 04:55:44;;;;;;;15.40;7.60;;;20.40;63.30;;;;;;5059465;28;46121;-67
2022/07/26 04:58:10;;;;;;;17.17;7.73;;;20.40;63.30;;;;;;5059395;28;46409;-67
2022/07/26 05:00:36;;;;;;;14.10;7.93;;;20.50;63.30;;;;;;5061360;28;46566;-68
2022/07/26 05:03:03;;;;;;;15.10;7.40;;;20.40;63.20;;;;;;5059795;28;46396;-67
2022/07/26 05:05:30;;;;;;;17.87;7.80;;;20.40;63.40;;;;;;5059799;28;46374;-67
2022/07/26 05:07:58;;;;;;;15.40;8.30;;;20.40;63.60;;;;;;5059740;28;46362;-68
2022/07/26 05:10:31;;;;;;;21.03;7.80;;;20.40;63.90;;;;;;5059812;28;46339;-68
2022/07/26 05:12:56;;;;;;;16.10;8.17;;;20.40;64.30;;;;;;5058261;28;47131;-68
2022/07/26 05:15:22;;;;;;;12.70;7.20;;;20.40;64.50;;;;;;5063161;28;46519;-68
2022/07/26 05:17:48;;;;;;;11.50;6.77;;;20.30;64.80;;;;;;5062023;28;46436;-67
2022/07/26 05:20:15;;;;;;;16.30;7.30;;;20.20;65.70;;;;;;5062497;28;46555;-68
2022/07/26 05:22:41;;;;;;;13.53;7.10;;;20.10;65.60;;;;;;5063356;28;47381;-68
2022/07/26 05:25:07;;;;;;;15.43;5.67;;;20.10;65.80;;;;;;5063028;28;46411;-68
2022/07/26 05:27:33;;;;;;;7.23;4.37;;;20.00;65.70;;;;;;5063354;28;46315;-68
2022/07/26 05:29:59;;;;;;;7.07;4.10;;;19.90;65.50;;;;;;5063608;28;46532;-68
2022/07/26 05:32:24;;;;;;;8.63;4.90;;;19.80;65.20;;;;;;5062448;28;47174;-68
2022/07/26 05:34:50;;;;;;;11.30;5.37;;;19.70;64.80;;;;;;5062736;28;46569;-68
2022/07/26 05:37:16;;;;;;;8.23;5.13;;;19.70;64.60;;;;;;5064390;28;46462;-68
2022/07/26 05:39:41;;;;;;;8.53;5.50;;;19.60;64.30;;;;;;5067615;28;46390;-68
2022/07/26 05:42:07;;;;;;;7.80;4.93;;;19.60;64.20;;;;;;5062223;28;46421;-67
2022/07/26 05:44:33;;;;;;;14.17;5.27;;;19.70;63.70;;;;;;5061181;28;46430;-68
2022/07/26 05:46:58;;;;;;;15.00;5.17;;;19.90;63.20;;;;;;5062838;28;46687;-68
2022/07/26 05:49:26;;;;;;;9.90;4.20;;;19.90;62.90;;;;;;5062816;28;46593;-68
2022/07/26 05:51:52;;;;;;;7.47;4.03;;;19.90;62.80;;;;;;5061502;28;46842;-68
2022/07/26 05:54:19;;;;;;;7.23;3.87;;;20.00;62.50;;;;;;5061409;28;46632;-68
2022/07/26 05:56:45;;;;;;;6.23;3.87;;;20.00;61.90;;;;;;5061223;28;46438;-68
2022/07/26 05:59:11;;;;;;;12.43;4.90;;;20.10;61.60;;;;;;5062404;28;46497;-68
2022/07/26 06:01:36;;;;;;;8.50;4.30;;;20.10;61.00;;;;;;5062750;28;47320;-68
2022/07/26 06:04:02;;;;;;;9.30;4.90;;;20.10;60.90;;;;;;5060985;28;45971;-68
2022/07/26 06:06:27;;;;;;;10.40;4.60;;;20.10;60.90;;;;;;5061661;28;46508;-68
2022/07/26 06:08:53;;;;;;;9.90;4.10;;;20.10;60.90;;;;;;5062937;28;46484;-68
2022/07/26 06:11:19;;;;;;;7.10;4.40;;;20.10;60.90;;;;;;5059182;28;46381;-68
2022/07/26 06:13:44;;;;;;;14.50;4.33;;;20.20;61.00;;;;;;5062461;28;46389;-67
2022/07/26 06:16:10;;;;;;;12.47;4.10;;;20.20;61.00;;;;;;5062015;28;46381;-68
2022/07/26 06:18:35;;;;;;;12.60;4.67;;;20.30;61.10;;;;;;5061990;28;45874;-68
2022/07/26 06:21:02;;;;;;;6.10;3.80;;;20.30;61.10;;;;;;5060923;28;46472;-68
2022/07/26 06:23:27;;;;;;;9.63;4.07;;;20.30;61.10;;;;;;5061494;28;46389;-68
2022/07/26 06:25:53;;;;;;;11.47;3.73;;;20.30;61.10;;;;;;5060856;28;46560;-68
2022/07/26 06:28:18;;;;;;;7.30;4.03;;;20.30;61.10;;;;;;5061186;28;46246;-68
2022/07/26 06:30:44;;;;;;;6.83;3.60;;;20.30;61.10;;;;;;5061431;28;46384;-68
2022/07/26 06:33:10;;;;;;;10.60;4.10;;;20.20;61.00;;;;;;5058674;28;46420;-68
2022/07/26 06:35:38;;;;;;;6.77;3.90;;;20.20;61.00;;;;;;5061375;28;46094;-68
2022/07/26 06:38:05;;;;;;;8.67;3.93;;;20.20;61.00;;;;;;5062001;28;46475;-68
2022/07/26 06:40:32;;;;;;;8.33;4.00;;;20.30;61.10;;;;;;5060364;28;47116;-68
2022/07/26 06:42:58;;;;;;;8.60;3.97;;;20.40;61.10;;;;;;5061280;28;46430;-68
2022/07/26 06:45:24;;;;;;;14.57;3.90;;;20.40;61.20;;;;;;5063807;28;46267;-68
2022/07/26 06:47:49;;;;;;;7.07;3.70;;;20.50;60.40;;;;;;5059906;28;46620;-68
2022/07/26 06:50:15;;;;;;;10.53;3.80;;;20.80;60.00;;;;;;5062242;28;46492;-68
2022/07/26 06:52:41;;;;;;;7.70;3.90;;;21.00;59.20;;;;;;5061423;28;46460;-68
2022/07/26 06:55:07;;;;;;;10.00;4.20;;;21.20;58.60;;;;;;5063253;28;46444;-68
2022/07/26 06:57:34;;;;;;;7.60;3.50;;;21.30;58.30;;;;;;5059839;28;46331;-68
2022/07/26 07:00:01;;;;;;;6.33;3.57;;;21.30;58.30;;;;;;5061174;28;47131;-68
2022/07/26 07:02:26;;;;;;;7.53;3.57;;;21.40;58.20;;;;;;5060342;28;46426;-68
2022/07/26 07:04:52;;;;;;;5.20;3.37;;;21.40;58.00;;;;;;5062320;28;46333;-68
2022/07/26 07:07:18;;;;;;;7.43;3.20;;;21.30;58.20;;;;;;5061578;28;46575;-68
2022/07/26 07:09:43;;;;;;;6.00;3.30;;;21.20;58.50;;;;;;5061009;28;46449;-68
2022/07/26 07:12:09;;;;;;;6.03;3.23;;;21.00;59.10;;;;;;5061662;28;46444;-68
2022/07/26 07:14:35;;;;;;;11.93;3.60;;;20.80;59.40;;;;;;5061978;28;46462;-68
2022/07/26 07:17:00;;;;;;;6.80;3.30;;;20.60;59.60;;;;;;5060551;28;46394;-68
2022/07/26 07:19:26;;;;;;;6.20;3.40;;;20.50;60.00;;;;;;5059606;28;46652;-68
2022/07/26 07:21:52;;;;;;;5.60;3.07;;;20.40;60.00;;;;;;5062056;28;46473;-68
2022/07/26 07:24:17;;;;;;;10.57;4.17;;;20.30;60.50;;;;;;5061560;28;46208;-68
2022/07/26 07:26:44;;;;;;;7.30;3.73;;;20.20;60.90;;;;;;5060197;28;46567;-68
2022/07/26 07:29:13;;;;;;;7.10;3.23;;;20.20;61.00;;;;;;5060330;28;47235;-68
2022/07/26 07:31:39;;;;;;;10.50;3.27;;;20.20;60.90;;;;;;5061242;28;46464;-68
2022/07/26 07:34:05;;;;;;;7.87;3.03;;;20.20;60.40;;;;;;5059739;28;46624;-68
2022/07/26 07:36:30;;;;;;;7.97;3.30;;;20.20;60.30;;;;;;5061466;28;46505;-67
2022/07/26 07:38:56;;;;;;;5.70;3.07;;;20.20;60.10;;;;;;5061122;28;47301;-68
2022/07/26 07:41:21;;;;;;;6.33;2.93;;;20.20;59.90;;;;;;5060086;28;46649;-68
2022/07/26 07:43:48;;;;;;;6.30;2.77;;;20.30;59.80;;;;;;5059942;28;46517;-68
2022/07/26 07:46:14;;;;;;;4.57;2.80;;;20.30;59.30;;;;;;5058412;28;46477;-68
2022/07/26 07:48:40;;;;;;;6.00;2.60;;;20.50;58.90;;;;;;5061121;28;46500;-68
2022/07/26 07:51:06;;;;;;;9.03;2.70;;;20.50;57.60;;;;;;5060584;28;46519;-69
2022/07/26 07:53:32;;;;;;;6.77;2.90;;;20.60;58.70;;;;;;5065466;28;46274;-68
2022/07/26 07:55:58;;;;;;;7.00;2.80;;;20.70;58.30;;;;;;5059993;28;46530;-68
2022/07/26 07:58:23;;;;;;;6.50;2.83;;;20.80;57.90;;;;;;5060118;28;48778;-68
2022/07/26 08:00:49;;;;;;;7.33;2.80;;;21.10;55.90;;;;;;5061049;28;46388;-68
2022/07/26 08:03:15;;;;;;;7.73;2.50;;;21.10;56.90;;;;;;5061018;28;46354;-68
2022/07/26 08:05:41;;;;;;;6.83;3.07;;;21.30;56.30;;;;;;5060489;28;46361;-68
2022/07/26 08:08:06;;;;;;;4.53;2.50;;;21.60;55.80;;;;;;5060682;28;45965;-68
2022/07/26 08:10:32;;;;;;;6.03;3.10;;;21.70;55.60;;;;;;5058202;28;46405;-68
2022/07/26 08:12:57;;;;;;;5.00;2.70;;;21.70;55.50;;;;;;5059174;28;46389;-68
2022/07/26 08:15:23;;;;;;;10.40;2.40;;;21.90;56.10;;;;;;5061323;28;46385;-68
2022/07/26 08:17:49;;;;;;;5.90;2.40;;;22.10;54.30;;;;;;5059887;28;46652;-68
2022/07/26 08:20:15;;;;;;;8.43;2.90;;;22.30;54.00;;;;;;5060110;28;46416;-68
2022/07/26 08:22:41;;;;;;;6.13;2.73;;;22.50;53.40;;;;;;5059186;28;46406;-68
2022/07/26 08:25:07;;;;;;;6.13;3.80;;;22.80;52.90;;;;;;5060044;28;46439;-68
2022/07/26 08:27:33;;;;;;;8.00;6.07;;;22.80;52.70;;;;;;5059358;28;46400;-68
2022/07/26 08:29:58;;;;;;;6.63;3.40;;;22.80;52.50;;;;;;5060321;28;46322;-68
2022/07/26 08:32:24;;;;;;;8.73;3.17;;;23.00;52.40;;;;;;5059597;28;46441;-68
2022/07/26 08:34:50;;;;;;;8.00;3.40;;;23.30;52.00;;;;;;5061315;28;46389;-68
2022/07/26 08:37:15;;;;;;;9.90;3.37;;;23.40;51.00;;;;;;5059301;28;48305;-68
2022/07/26 08:39:41;;;;;;;8.33;2.93;;;23.30;51.00;;;;;;5060412;28;46433;-68
2022/07/26 08:42:17;;;;;;;8.37;3.40;;;23.20;51.50;;;;;;5060474;28;46891;-68
2022/07/26 08:44:45;;;;;;;6.90;3.27;;;23.20;51.10;;;;;;5060509;28;46661;-68
2022/07/26 08:47:15;;;;;;;7.33;3.80;;;23.40;50.80;;;;;;5058871;28;47246;-68
2022/07/26 08:49:42;;;;;;;8.83;3.40;;;23.70;51.10;;;;;;5059535;28;46314;-68
2022/07/26 08:52:08;;;;;;;6.73;3.33;;;23.90;50.20;;;;;;5057241;28;46741;-67
2022/07/26 08:54:34;;;;;;;5.33;3.10;;;24.20;49.60;;;;;;5059862;28;46396;-68
2022/07/26 08:57:00;;;;;;;7.73;2.77;;;24.40;48.40;;;;;;5058161;28;47257;-68
2022/07/26 08:59:26;;;;;;;5.53;2.70;;;24.80;47.60;;;;;;5059979;28;45886;-68
2022/07/26 09:02:04;;;;;;;4.20;2.67;;;25.20;46.60;;;;;;5059433;28;46527;-68
2022/07/26 09:04:43;;;;;;;4.80;2.70;;;25.60;44.60;;;;;;5058968;28;46471;-68
2022/07/26 09:07:16;;;;;;;6.30;3.00;;;25.70;44.00;;;;;;5060164;28;46497;-68
2022/07/26 09:09:58;;;;;;;8.77;2.50;;;25.50;44.00;;;;;;5058848;28;46378;-68
2022/07/26 09:12:25;;;;;;;4.97;3.00;;;25.30;44.00;;;;;;5057786;28;46448;-68
2022/07/26 09:14:51;;;;;;;4.80;3.07;;;25.40;44.10;;;;;;5059392;28;46342;-68
2022/07/26 09:17:19;;;;;;;4.10;2.40;;;25.40;44.90;;;;;;5058770;28;46405;-68
2022/07/26 09:19:46;;;;;;;3.27;2.10;;;25.50;43.00;;;;;;5058440;28;46496;-68
2022/07/26 09:22:14;;;;;;;4.97;2.37;;;25.60;42.50;;;;;;5059236;28;46115;-68
2022/07/26 09:24:43;;;;;;;12.60;3.43;;;25.80;42.00;;;;;;5057209;28;46837;-68
2022/07/26 09:27:14;;;;;;;4.50;2.40;;;25.90;41.00;;;;;;5058944;28;47211;-69
2022/07/26 09:29:49;;;;;;;8.20;2.43;;;26.10;40.40;;;;;;5056177;28;46429;-68
2022/07/26 09:32:25;;;;;;;7.90;2.67;;;26.40;39.60;;;;;;5058297;28;46712;-68
2022/07/26 09:35:07;;;;;;;5.70;2.63;;;26.70;39.50;;;;;;5059328;28;46052;-69
2022/07/26 09:37:41;;;;;;;4.20;2.17;;;26.60;39.70;;;;;;5057699;28;46481;-69
2022/07/26 09:40:10;;;;;;;4.53;2.27;;;26.40;39.60;;;;;;5058077;28;46792;-68
2022/07/26 09:42:36;;;;;;;3.80;2.40;;;26.60;39.70;;;;;;5059570;28;46384;-68
2022/07/26 09:45:13;;;;;;;4.90;2.30;;;26.70;39.40;;;;;;5057181;28;46380;-68
2022/07/26 09:47:39;;;;;;;3.43;2.40;;;26.60;39.80;;;;;;5056676;28;46434;-68
2022/07/26 09:50:10;;;;;;;5.70;2.50;;;26.20;39.40;;;;;;5057469;28;46520;-69
2022/07/26 09:52:36;;;;;;;6.63;2.20;;;25.80;39.90;;;;;;5059646;27;46402;-69
2022/07/26 09:55:06;;;;;;;7.50;2.43;;;25.70;40.40;;;;;;5056634;28;46468;-69
2022/07/26 09:57:34;;;;;;;3.47;2.10;;;25.80;40.50;;;;;;5059063;28;46354;-67
2022/07/26 10:00:04;;;;;;;4.93;2.43;;;25.80;42.00;;;;;;5058292;28;46392;-69
2022/07/26 10:02:30;;;;;;;3.87;2.00;;;25.80;40.00;;;;;;5060949;28;46435;-69
2022/07/26 10:04:55;;;;;;;7.13;2.40;;;26.00;39.40;;;;;;5062466;28;46843;-68
2022/07/26 10:07:21;;;;;;;5.53;2.50;;;26.20;38.90;;;;;;5061094;28;47113;-69
2022/07/26 10:09:59;;;;;;;10.37;2.40;;;26.50;38.90;;;;;;5061441;28;46422;-69
2022/07/26 10:12:30;;;;;;;3.40;1.97;;;27.00;37.20;;;;;;5062993;28;46662;-69
2022/07/26 10:14:55;;;;;;;4.90;2.20;;;27.20;35.40;;;;;;5061474;28;46476;-68
2022/07/26 10:17:27;;;;;;;6.03;2.03;;;27.60;34.00;;;;;;5061541;28;47015;-68
2022/07/26 10:19:57;;;;;;;4.83;2.40;;;27.70;32.60;;;;;;5061470;28;46294;-68
2022/07/26 10:22:30;;;;;;;7.40;2.70;;;27.80;32.20;;;;;;5061464;28;46443;-68
2022/07/26 10:25:17;;;;;;;5.57;2.10;;;28.10;30.90;;;;;;5061441;28;46450;-69
2022/07/26 10:27:49;;;;;;;5.70;2.90;;;28.30;29.80;;;;;;5058899;28;48960;-68
2022/07/26 10:30:23;;;;;;;5.27;2.30;;;28.40;29.20;;;;;;5061530;28;46410;-68
2022/07/26 10:32:59;;;;;;;9.13;2.30;;;28.10;29.40;;;;;;5060951;28;45943;-68
2022/07/26 10:35:41;;;;;;;4.43;2.40;;;28.10;28.90;;;;;;5061890;28;46366;-68
2022/07/26 10:38:11;;;;;;;4.87;2.40;;;27.70;30.30;;;;;;5060702;28;47002;-67
2022/07/26 10:40:54;;;;;;;2.83;1.70;;;27.50;29.90;;;;;;5061212;28;46337;-67
2022/07/26 10:43:19;;;;;;;6.53;2.40;;;27.30;30.10;;;;;;5061972;28;46535;-68
2022/07/26 10:45:45;;;;;;;3.80;2.53;;;27.00;30.60;;;;;;5061323;28;46473;-68
2022/07/26 10:48:12;;;;;;;5.77;2.40;;;26.70;30.80;;;;;;5061247;28;46359;-68
2022/07/26 10:50:40;;;;;;;3.30;2.10;;;26.50;31.20;;;;;;5061503;28;46444;-68
2022/07/26 10:53:08;;;;;;;9.43;2.10;;;26.20;31.90;;;;;;5060757;28;46390;-67
2022/07/26 10:55:54;;;;;;;6.60;2.27;;;25.90;32.40;;;;;;5061204;28;46678;-68
2022/07/26 10:58:22;;;;;;;2.93;1.83;;;25.50;32.20;;;;;;5057619;28;48128;-69
2022/07/26 11:00:55;;;;;;;7.60;2.53;;;25.40;32.70;;;;;;5061412;28;46341;-68
2022/07/26 11:03:21;;;;;;;4.13;2.00;;;25.20;33.00;;;;;;5061506;28;46692;-68
2022/07/26 11:05:47;;;;;;;5.70;2.30;;;25.20;32.90;;;;;;5062366;28;46377;-68
2022/07/26 11:08:12;;;;;;;3.97;2.37;;;25.40;32.90;;;;;;5061718;28;47274;-68
2022/07/26 11:10:40;;;;;;;4.20;2.10;;;25.50;32.40;;;;;;5062585;28;46353;-68
2022/07/26 11:13:16;;;;;;;6.40;2.23;;;25.80;31.90;;;;;;5060710;28;45990;-68
2022/07/26 11:15:47;;;;;;;5.10;2.00;;;25.90;31.40;;;;;;5062881;28;46591;-68
2022/07/26 11:18:15;;;;;;;3.00;1.90;;;26.10;31.10;;;;;;5058354;28;46472;-68
2022/07/26 11:20:44;;;;;;;4.43;2.10;;;26.10;32.20;;;;;;5062526;28;47265;-68
2022/07/26 11:23:23;;;;;;;4.27;2.10;;;26.10;31.10;;;;;;5060789;28;46490;-68
2022/07/26 11:26:18;;;;;;;5.20;2.33;;;26.20;30.90;;;;;;5060265;28;46404;-68
2022/07/26 11:28:52;;;;;;;5.13;2.00;;;26.30;30.50;;;;;;5060205;28;46385;-68
2022/07/26 11:31:19;;;;;;;4.17;2.00;;;26.30;30.60;;;;;;5060281;28;46445;-68
2022/07/26 11:33:47;;;;;;;5.60;2.90;;;26.50;30.30;;;;;;5063241;28;45920;-69
2022/07/26 11:36:13;;;;;;;4.40;2.13;;;26.60;30.30;;;;;;5060888;28;46471;-69
2022/07/26 11:38:52;;;;;;;4.03;2.10;;;26.60;30.00;;;;;;5059873;28;47077;-68
2022/07/26 11:41:23;;;;;;;4.80;1.97;;;26.80;29.60;;;;;;5060175;28;45880;-69
2022/07/26 11:43:50;;;;;;;6.77;2.17;;;27.00;29.30;;;;;;5060606;28;46625;-69
2022/07/26 11:46:16;;;;;;;3.50;1.90;;;27.20;28.80;;;;;;5061511;28;45969;-68
2022/07/26 11:48:52;;;;;;;5.90;2.47;;;27.40;28.30;;;;;;5057771;28;48026;-69
2022/07/26 11:51:21;;;;;;;6.93;2.60;;;27.70;27.40;;;;;;5057696;28;45938;-68
2022/07/26 11:53:47;;;;;;;7.50;2.57;;;27.70;27.40;;;;;;5059784;28;46377;-69
2022/07/26 11:56:20;;;;;;;5.13;2.00;;;27.70;27.40;;;;;;5061578;28;46464;-69
2022/07/26 11:58:48;;;;;;;5.90;2.07;;;27.90;27.50;;;;;;5058176;28;46323;-68
2022/07/26 12:01:15;;;;;;;9.63;2.27;;;28.00;27.60;;;;;;5061181;28;46373;-68
2022/07/26 12:03:43;;;;;;;4.60;2.33;;;28.00;27.60;;;;;;5060053;28;46603;-69
2022/07/26 12:06:12;;;;;;;5.53;2.20;;;27.80;27.50;;;;;;5060200;28;46531;-68
2022/07/26 12:08:48;;;;;;;8.30;2.60;;;27.60;27.40;;;;;;5059382;28;46652;-68
2022/07/26 12:11:16;;;;;;;4.13;2.07;;;27.70;27.40;;;;;;5057587;28;46420;-68
2022/07/26 12:13:59;;;;;;;5.10;2.00;;;27.60;27.90;;;;;;5061359;27;46406;-67
2022/07/26 12:16:45;;;;;;;6.00;2.40;;;27.60;28.60;;;;;;5059146;28;46495;-67
2022/07/26 12:19:16;;;;;;;6.27;2.47;;;27.90;27.50;;;;;;5058718;28;46256;-67
2022/07/26 12:21:44;;;;;;;3.97;2.53;;;27.70;27.40;;;;;;5055905;28;46507;-68
2022/07/26 12:24:11;;;;;;;5.73;2.43;;;27.60;27.40;;;;;;5059580;28;45865;-67
2022/07/26 12:26:37;;;;;;;6.50;2.70;;;27.70;27.40;;;;;;5058896;28;46368;-68
2022/07/26 12:32:18;;;;;;;5.60;3.00;;;28.10;27.30;;;;;;5039494;28;46334;-68
2022/07/26 12:34:58;;;;;;;11.63;3.30;;;28.20;26.90;;;;;;5058175;28;46297;-68
2022/07/26 12:37:24;;;;;;;7.10;3.40;;;28.10;27.00;;;;;;5060009;28;46334;-68
2022/07/26 12:40:01;;;;;;;6.83;2.83;;;28.30;27.30;;;;;;5060881;28;46362;-68
2022/07/26 12:42:30;;;;;;;4.40;2.40;;;28.70;26.90;;;;;;5057950;28;46378;-69
2022/07/26 12:44:57;;;;;;;3.87;2.80;;;28.60;27.30;;;;;;5060230;28;46288;-68
2022/07/26 12:47:23;;;;;;;5.73;2.67;;;28.80;27.10;;;;;;5057488;28;46469;-68